Terminal Aerodrome Forecast
Issued by NWS

Home | Current Version | Previous Version | Text Only | Print | Product List | Glossary On
Versions: 1 2 3 4 5 6 7 8 9 10 11 12 13 14 15 16 17 18 19 20 21 22 23 24 25 26
000
FTUS43 KBIS 261139
TAFDIK
TAF
KDIK 261139Z 2612/2712 18004KT P6SM VCSH BKN030 OVC070
      TEMPO 2612/2615 SCT005 BKN015
     FM261700 23004KT P6SM BKN050
     FM262200 29007KT P6SM BKN070
     FM270300 17004KT P6SM FEW250
     FM270800 23005KT P6SM FEW200=

USA.gov is the U.S. government's official web portal to all federal, state and local government web resources and services.